WADD

Denpasar/Ngurah Rai International Airport

Airport
ICAO code
WADD
IATA Code
DPS
Summary
ICAO Region
APAC
ICAO Territory
Location

Denpasar, Badung, Bali

Serving
Denpasar
Elevation
4 ft
Coordinates
8° 44' 53" S , 115° 10' 3" E
KCC
Metar
Observation
WADD 241900Z 20003KT 9999 FEW017 27/25 Q1010 NOSIG
Station
BALI INTL
Date/Time
2022-09-24 19:00:00
Wind direction
200°
Wind speed
03 kts
Lowest cloud amount
few clouds
Temperature
27°C
Dew point
25°C
Humidity
88%
QNH
1010 hPa
Weather condition
n/a

International airport serving Bali and Denpasar.

Climatology

Tropical Savanna climate (Köppen climate classification Aw) - monthly mean temperature above 18°C in every month of the year and a pronounced dry season.

Airport map

Aerial View

SKYbrary Partners:

Safety knowledge contributed by: